createdAt,value
2022-12-04T00:01:47.183Z,1.59
2022-12-04T00:04:17.502Z,1.58
2022-12-04T00:06:47.752Z,1.53
2022-12-04T00:09:20.591Z,1.56
2022-12-04T00:11:50.753Z,1.48
2022-12-04T00:14:22.302Z,1.57
2022-12-04T00:16:53.351Z,1.57
2022-12-04T00:19:24.096Z,1.49
2022-12-04T00:21:54.728Z,1.55
2022-12-04T00:24:28.400Z,1.50
2022-12-04T00:26:58.368Z,1.43
2022-12-04T00:29:28.431Z,1.45
2022-12-04T00:31:59.191Z,1.41
2022-12-04T00:34:29.323Z,1.45
2022-12-04T00:36:59.623Z,1.46
2022-12-04T00:39:32.446Z,1.51
2022-12-04T00:42:03.683Z,1.46
2022-12-04T00:44:33.848Z,1.39
2022-12-04T00:47:04.081Z,1.40
2022-12-04T00:49:34.338Z,1.46
2022-12-04T00:52:04.517Z,1.48
2022-12-04T00:54:37.246Z,1.40
2022-12-04T00:57:07.523Z,1.32
2022-12-04T00:59:37.656Z,1.33
2022-12-04T01:02:08.096Z,1.25
2022-12-04T01:04:38.328Z,1.30
2022-12-04T01:07:08.524Z,1.27
2022-12-04T01:09:41.392Z,1.30
2022-12-04T01:12:13.922Z,1.23
2022-12-04T01:14:47.913Z,1.22
2022-12-04T01:17:18.316Z,1.15
2022-12-04T01:19:48.785Z,1.16
2022-12-04T01:22:19.007Z,1.17
2022-12-04T01:24:51.905Z,1.09
2022-12-04T01:27:21.943Z,1.09
2022-12-04T01:29:52.278Z,1.07
2022-12-04T01:32:22.625Z,1.04
2022-12-04T01:34:52.709Z,0.99
2022-12-04T01:37:23.624Z,0.99
2022-12-04T01:39:56.737Z,1.02
2022-12-04T01:42:27.085Z,0.97
2022-12-04T01:45:27.876Z,0.91
2022-12-04T01:48:01.442Z,0.91
2022-12-04T01:50:33.479Z,0.99
2022-12-04T01:53:03.675Z,0.96
2022-12-04T01:55:37.097Z,0.87
2022-12-04T01:58:07.340Z,0.84
2022-12-04T02:00:38.164Z,0.83
2022-12-04T02:03:08.323Z,0.89
2022-12-04T02:05:38.790Z,0.93
2022-12-04T02:08:10.665Z,0.89
2022-12-04T02:10:54.678Z,0.87
2022-12-04T02:13:34.570Z,0.89
2022-12-04T02:16:13.186Z,0.87
2022-12-04T02:18:53.527Z,0.86
2022-12-04T02:21:30.422Z,0.85
2022-12-04T02:24:25.360Z,0.79
2022-12-04T02:27:02.189Z,0.83
2022-12-04T02:29:43.522Z,0.77
2022-12-04T02:32:22.886Z,0.89
2022-12-04T02:34:59.830Z,0.92
2022-12-04T02:37:35.103Z,0.83
2022-12-04T02:40:10.516Z,0.78
2022-12-04T02:42:46.832Z,0.72
2022-12-04T02:45:25.404Z,0.73
2022-12-04T02:47:56.986Z,0.83
2022-12-04T02:50:28.428Z,0.78
2022-12-04T02:53:05.262Z,0.71
2022-12-04T02:55:40.845Z,0.68
2022-12-04T02:58:14.680Z,0.73
2022-12-04T03:01:00.817Z,0.63
2022-12-04T03:03:33.963Z,0.63
2022-12-04T03:06:08.228Z,0.59
2022-12-04T03:08:43.348Z,0.64
2022-12-04T03:11:13.726Z,0.64
2022-12-04T03:13:49.636Z,0.62
2022-12-04T03:16:27.887Z,0.63
2022-12-04T03:19:01.202Z,0.62
2022-12-04T03:21:35.226Z,0.63
2022-12-04T03:24:13.724Z,0.64
2022-12-04T03:26:48.779Z,0.63
2022-12-04T03:29:24.200Z,0.54
2022-12-04T03:32:04.194Z,0.53
2022-12-04T03:34:40.103Z,0.45
2022-12-04T03:37:17.118Z,0.43
2022-12-04T03:39:56.137Z,0.47
2022-12-04T03:42:30.604Z,0.48
2022-12-04T03:45:05.621Z,0.49
2022-12-04T03:47:42.404Z,0.48
2022-12-04T03:50:18.737Z,0.42
2022-12-04T03:52:54.146Z,0.42
2022-12-04T03:55:30.159Z,0.38
2022-12-04T03:58:08.144Z,0.47
2022-12-04T04:00:43.261Z,0.40
2022-12-04T04:03:20.709Z,0.44
2022-12-04T04:05:56.499Z,0.39
2022-12-04T04:08:34.134Z,0.41
2022-12-04T04:11:14.983Z,0.36
2022-12-04T04:14:01.625Z,0.37
2022-12-04T04:16:46.760Z,0.29
2022-12-04T04:19:35.304Z,0.30
2022-12-04T04:22:21.626Z,0.25
2022-12-04T04:24:57.082Z,0.19
2022-12-04T04:27:27.312Z,0.25
2022-12-04T04:29:57.746Z,0.21
2022-12-04T04:32:37.520Z,0.14
2022-12-04T04:35:21.010Z,0.17
2022-12-04T04:37:59.644Z,0.15
2022-12-04T04:40:39.054Z,0.15
2022-12-04T04:43:13.307Z,0.23
2022-12-04T04:45:50.932Z,0.13
2022-12-04T04:48:26.900Z,0.11
2022-12-04T04:51:00.976Z,0.14
2022-12-04T04:53:37.146Z,0.09
2022-12-04T04:56:10.207Z,0.05
2022-12-04T04:58:40.356Z,0.11
2022-12-04T05:01:12.432Z,0.02
2022-12-04T05:03:43.520Z,-0.03
2022-12-04T05:06:17.065Z,-0.11
2022-12-04T05:08:49.403Z,-0.07
2022-12-04T05:11:20.758Z,-0.11
2022-12-04T05:13:50.785Z,-0.12
2022-12-04T05:16:21.374Z,-0.17
2022-12-04T05:19:03.648Z,-0.16
2022-12-04T05:21:37.047Z,-0.15
2022-12-04T05:24:07.401Z,-0.15
2022-12-04T05:26:37.615Z,-0.18
2022-12-04T05:29:07.794Z,-0.22
2022-12-04T05:31:39.176Z,-0.24
2022-12-04T05:34:09.492Z,-0.29
2022-12-04T05:36:42.738Z,-0.26
2022-12-04T05:39:12.776Z,-0.24
2022-12-04T05:41:43.224Z,-0.23
2022-12-04T05:44:13.467Z,-0.18
2022-12-04T05:46:43.738Z,-0.18
2022-12-04T05:49:13.916Z,-0.23
2022-12-04T05:51:47.075Z,-0.16
2022-12-04T05:54:17.506Z,-0.12
2022-12-04T05:56:47.742Z,-0.08
2022-12-04T05:59:18.228Z,-0.15
2022-12-04T06:01:48.731Z,-0.14
2022-12-04T06:04:20.179Z,-0.18
2022-12-04T06:06:53.417Z,-0.18
2022-12-04T06:09:23.817Z,-0.14
2022-12-04T06:12:00.219Z,-0.04
2022-12-04T06:14:33.702Z,-0.03
2022-12-04T06:17:07.135Z,-0.01
2022-12-04T06:19:37.623Z,-0.02
2022-12-04T06:22:10.560Z,-0.03
2022-12-04T06:24:42.158Z,-0.04
2022-12-04T06:27:27.270Z,0.10
2022-12-04T06:29:58.647Z,0.13
2022-12-04T06:32:29.594Z,0.03
2022-12-04T06:34:59.821Z,0.06
2022-12-04T06:37:32.972Z,0.04
2022-12-04T06:40:04.631Z,0.01
2022-12-04T06:42:34.852Z,0.08
2022-12-04T06:45:05.571Z,0.08
2022-12-04T06:47:37.891Z,0.15
2022-12-04T06:50:09.749Z,0.20
2022-12-04T06:52:42.749Z,0.14
2022-12-04T06:55:13.070Z,0.15
2022-12-04T06:57:46.506Z,0.21
2022-12-04T07:00:17.803Z,0.26
2022-12-04T07:02:49.074Z,0.26
2022-12-04T07:05:19.437Z,0.33
2022-12-04T07:07:52.467Z,0.36
2022-12-04T07:10:22.634Z,0.32
2022-12-04T07:12:52.832Z,0.36
2022-12-04T07:15:27.376Z,0.38
2022-12-04T07:17:58.389Z,0.33
2022-12-04T07:20:29.014Z,0.37
2022-12-04T07:23:07.403Z,0.35
2022-12-04T07:25:42.734Z,0.44
2022-12-04T07:28:13.083Z,0.48
2022-12-04T07:30:43.933Z,0.49
2022-12-04T07:33:14.474Z,0.46
2022-12-04T07:35:44.845Z,0.52
2022-12-04T07:38:17.701Z,0.58
2022-12-04T07:40:52.765Z,0.59
2022-12-04T07:43:23.806Z,0.65
2022-12-04T07:45:54.426Z,0.68
2022-12-04T07:48:28.789Z,0.76
2022-12-04T07:51:06.571Z,0.76
2022-12-04T07:53:41.382Z,0.76
2022-12-04T07:56:13.720Z,0.82
2022-12-04T07:58:44.542Z,0.90
2022-12-04T08:01:16.996Z,0.78
2022-12-04T08:03:49.181Z,0.91
2022-12-04T08:06:19.970Z,0.94
2022-12-04T08:08:53.890Z,1.03
2022-12-04T08:11:25.169Z,0.97
2022-12-04T08:13:57.501Z,1.01
2022-12-04T08:16:29.169Z,1.05
2022-12-04T08:19:00.173Z,1.16
2022-12-04T08:21:32.644Z,1.22
2022-12-04T08:24:06.982Z,1.34
2022-12-04T08:26:37.191Z,1.31
2022-12-04T08:29:08.155Z,1.42
2022-12-04T08:31:39.791Z,1.53
2022-12-04T08:34:11.299Z,1.66
2022-12-04T08:36:42.659Z,1.63
2022-12-04T08:39:15.965Z,1.62
2022-12-04T08:41:46.234Z,1.74
2022-12-04T08:44:19.194Z,1.74
2022-12-04T08:46:49.345Z,1.67
2022-12-04T08:49:19.595Z,1.71
2022-12-04T08:51:49.963Z,1.72
2022-12-04T08:54:22.858Z,1.87
2022-12-04T08:57:01.676Z,1.83
2022-12-04T08:59:33.890Z,1.90
2022-12-04T09:02:04.059Z,2.05
2022-12-04T09:04:34.516Z,2.04
2022-12-04T09:07:04.718Z,2.11
2022-12-04T09:09:42.293Z,2.24
2022-12-04T09:12:15.298Z,2.28
2022-12-04T09:14:45.330Z,2.25
2022-12-04T09:17:15.820Z,2.43
2022-12-04T09:19:46.047Z,2.46
2022-12-04T09:22:16.120Z,2.57
2022-12-04T09:24:48.861Z,2.68
2022-12-04T09:27:18.975Z,2.85
2022-12-04T09:29:49.192Z,2.86
2022-12-04T09:32:19.412Z,2.92
2022-12-04T09:34:52.806Z,3.03
2022-12-04T09:37:23.136Z,3.14
2022-12-04T09:39:56.511Z,3.26
2022-12-04T09:42:40.542Z,3.36
2022-12-04T09:45:16.629Z,3.46
2022-12-04T09:47:52.098Z,3.61
2022-12-04T09:50:26.124Z,3.53
2022-12-04T09:53:00.919Z,3.67
2022-12-04T09:55:38.070Z,3.66
2022-12-04T09:58:13.653Z,3.63
2022-12-04T10:00:46.692Z,3.78
2022-12-04T10:03:19.968Z,3.84
2022-12-04T10:06:02.005Z,3.93
2022-12-04T10:08:35.519Z,4.09
2022-12-04T10:11:15.995Z,4.08
2022-12-04T10:14:11.736Z,4.14
2022-12-04T10:16:55.958Z,4.26
2022-12-04T10:19:31.454Z,4.30
2022-12-04T10:22:10.875Z,4.51
2022-12-04T10:24:46.084Z,4.58
2022-12-04T10:27:27.682Z,4.48
2022-12-04T10:30:02.452Z,4.66
2022-12-04T10:32:34.970Z,4.63
2022-12-04T10:35:18.595Z,4.66
2022-12-04T10:37:52.627Z,4.69
2022-12-04T10:40:28.537Z,4.74
2022-12-04T10:43:06.638Z,4.85
2022-12-04T10:45:38.124Z,4.83
2022-12-04T10:48:10.838Z,4.90
2022-12-04T10:50:41.016Z,4.96
2022-12-04T10:53:13.891Z,5.09
2022-12-04T10:55:44.436Z,5.10
2022-12-04T10:58:23.650Z,5.18
2022-12-04T11:01:05.754Z,5.15
2022-12-04T11:03:41.122Z,5.18
2022-12-04T11:06:13.386Z,5.18
2022-12-04T11:08:46.597Z,5.19
2022-12-04T11:11:19.080Z,5.21
2022-12-04T11:13:51.865Z,5.32
2022-12-04T11:16:36.937Z,5.41
2022-12-04T11:19:24.099Z,5.36
2022-12-04T11:21:55.359Z,5.47
2022-12-04T11:24:28.781Z,5.45
2022-12-04T11:26:59.714Z,5.48
2022-12-04T11:29:35.662Z,5.40
2022-12-04T11:32:08.152Z,5.52
2022-12-04T11:34:41.991Z,5.44
2022-12-04T11:37:23.971Z,5.46
2022-12-04T11:39:55.548Z,5.58
2022-12-04T11:42:28.927Z,5.61
2022-12-04T11:45:05.533Z,5.70
2022-12-04T11:47:36.291Z,5.69
2022-12-04T11:50:16.596Z,5.55
2022-12-04T11:53:05.058Z,5.63
2022-12-04T11:55:45.190Z,5.73
2022-12-04T11:58:33.211Z,5.85
2022-12-04T12:01:18.689Z,5.82
2022-12-04T12:04:06.445Z,5.88
2022-12-04T12:06:40.594Z,5.89
2022-12-04T12:09:21.235Z,5.88
2022-12-04T12:11:59.245Z,5.94
2022-12-04T12:14:35.185Z,6.04
2022-12-04T12:17:21.833Z,6.01
2022-12-04T12:20:20.558Z,5.87
2022-12-04T12:23:05.638Z,5.99
2022-12-04T12:25:43.404Z,5.88
2022-12-04T12:28:26.610Z,5.84
2022-12-04T12:31:14.182Z,5.91
2022-12-04T12:33:54.076Z,5.88
2022-12-04T12:36:27.116Z,5.74
2022-12-04T12:39:04.971Z,5.81
2022-12-04T12:41:40.524Z,5.79
2022-12-04T12:44:17.464Z,5.78
2022-12-04T12:46:53.232Z,5.72
2022-12-04T12:49:32.331Z,5.71
2022-12-04T12:52:08.938Z,5.71
2022-12-04T12:54:46.706Z,5.65
2022-12-04T12:57:21.298Z,5.65
2022-12-04T12:59:56.015Z,5.57
2022-12-04T13:02:30.947Z,5.52
2022-12-04T13:05:09.608Z,5.44
2022-12-04T13:07:49.107Z,5.52
2022-12-04T13:10:24.264Z,5.55
2022-12-04T13:12:58.288Z,5.50
2022-12-04T13:15:37.734Z,5.41
2022-12-04T13:18:12.659Z,5.40
2022-12-04T13:20:54.499Z,5.31
2022-12-04T13:23:40.335Z,5.38
2022-12-04T13:26:20.172Z,5.39
2022-12-04T13:28:58.051Z,5.33
2022-12-04T13:31:37.093Z,5.31
2022-12-04T13:34:27.469Z,5.31
2022-12-04T13:37:28.532Z,5.28
2022-12-04T13:40:31.993Z,5.22
2022-12-04T13:43:32.165Z,5.26
2022-12-04T13:46:05.267Z,5.23
2022-12-04T13:48:44.407Z,5.22
2022-12-04T13:51:37.255Z,5.22
2022-12-04T13:54:37.360Z,5.25
2022-12-04T13:57:22.190Z,5.24
2022-12-04T13:59:52.864Z,5.19
2022-12-04T14:02:35.655Z,5.14
2022-12-04T14:05:08.978Z,5.12
2022-12-04T14:07:41.992Z,5.13
2022-12-04T14:10:32.412Z,5.21
2022-12-04T14:13:05.915Z,5.19
2022-12-04T14:15:39.475Z,5.12
2022-12-04T14:18:23.399Z,5.14
2022-12-04T14:21:04.618Z,5.14
2022-12-04T14:23:40.736Z,5.08
2022-12-04T14:26:48.951Z,5.09
2022-12-04T14:29:39.615Z,5.07
2022-12-04T14:32:15.804Z,5.01
2022-12-04T14:34:46.398Z,5.01
2022-12-04T14:37:25.099Z,4.98
2022-12-04T14:39:56.679Z,4.97
2022-12-04T14:42:33.454Z,4.97
2022-12-04T14:45:06.861Z,4.99
2022-12-04T14:47:46.943Z,5.00
2022-12-04T14:50:32.070Z,4.99
2022-12-04T14:53:14.303Z,5.01
2022-12-04T14:55:55.412Z,5.00
2022-12-04T14:58:34.925Z,5.04
2022-12-04T15:01:08.351Z,5.00
2022-12-04T15:03:46.270Z,5.06
2022-12-04T15:06:22.977Z,5.00
2022-12-04T15:09:15.669Z,4.99
2022-12-04T15:12:02.087Z,5.01
2022-12-04T15:14:42.877Z,4.93
2022-12-04T15:17:14.646Z,4.89
2022-12-04T15:19:44.939Z,4.83
2022-12-04T15:22:21.656Z,4.82
2022-12-04T15:24:51.871Z,4.83
2022-12-04T15:27:28.834Z,4.94
2022-12-04T15:30:06.566Z,4.86
2022-12-04T15:32:36.838Z,4.80
2022-12-04T15:35:10.542Z,4.75
2022-12-04T15:37:41.458Z,4.72
2022-12-04T15:40:21.568Z,4.71
2022-12-04T15:42:52.134Z,4.72
2022-12-04T15:45:35.453Z,4.71
2022-12-04T15:48:05.609Z,4.63
2022-12-04T15:50:38.291Z,4.62
2022-12-04T15:53:20.376Z,4.63
2022-12-04T15:55:53.717Z,4.59
2022-12-04T15:58:29.282Z,4.59
2022-12-04T16:01:07.461Z,4.57
2022-12-04T16:03:48.461Z,4.58
2022-12-04T16:06:22.289Z,4.58
2022-12-04T16:08:54.395Z,4.51
2022-12-04T16:11:37.637Z,4.50
2022-12-04T16:14:19.744Z,4.46
2022-12-04T16:16:54.892Z,4.45
2022-12-04T16:19:31.725Z,4.45
2022-12-04T16:22:02.481Z,4.50
2022-12-04T16:24:32.887Z,4.44
2022-12-04T16:27:05.800Z,4.65
2022-12-04T16:29:36.117Z,4.47
2022-12-04T16:32:09.787Z,4.43
2022-12-04T16:34:39.911Z,4.43
2022-12-04T16:37:15.437Z,4.41
2022-12-04T16:39:46.129Z,4.41
2022-12-04T16:42:20.057Z,4.45
2022-12-04T16:44:50.309Z,4.51
2022-12-04T16:47:24.035Z,4.44
2022-12-04T16:49:55.514Z,4.40
2022-12-04T16:52:25.537Z,4.43
2022-12-04T16:54:58.472Z,4.38
2022-12-04T16:57:31.908Z,4.35
2022-12-04T17:00:02.258Z,4.34
2022-12-04T17:02:35.105Z,4.33
2022-12-04T17:05:05.432Z,4.30
2022-12-04T17:07:35.788Z,4.35
2022-12-04T17:10:06.526Z,4.34
2022-12-04T17:12:36.996Z,4.28
2022-12-04T17:15:08.241Z,4.33
2022-12-04T17:17:42.264Z,4.28
2022-12-04T17:20:16.368Z,4.29
2022-12-04T17:22:46.929Z,4.30
2022-12-04T17:25:19.112Z,4.27
2022-12-04T17:27:49.335Z,4.29
2022-12-04T17:30:20.221Z,4.29
2022-12-04T17:32:53.056Z,4.25
2022-12-04T17:35:24.131Z,4.25
2022-12-04T17:37:54.175Z,4.21
2022-12-04T17:40:24.395Z,4.19
2022-12-04T17:42:54.570Z,4.18
2022-12-04T17:45:25.326Z,4.19
2022-12-04T17:47:58.204Z,4.20
2022-12-04T17:50:28.780Z,4.24
2022-12-04T17:52:59.089Z,4.27
2022-12-04T17:55:29.313Z,4.27
2022-12-04T17:57:59.989Z,4.24
2022-12-04T18:00:31.003Z,4.24
2022-12-04T18:03:04.077Z,4.26
2022-12-04T18:05:34.811Z,4.31
2022-12-04T18:08:05.126Z,4.26
2022-12-04T18:10:38.682Z,4.21
2022-12-04T18:13:11.150Z,4.22
2022-12-04T18:15:42.033Z,4.25
2022-12-04T18:18:15.749Z,4.20
2022-12-04T18:20:46.343Z,4.20
2022-12-04T18:23:16.548Z,4.19
2022-12-04T18:25:56.764Z,4.21
2022-12-04T18:28:27.345Z,4.16
2022-12-04T18:30:58.685Z,4.16
2022-12-04T18:33:46.666Z,4.14
2022-12-04T18:36:19.123Z,4.16
2022-12-04T18:38:49.939Z,4.15
2022-12-04T18:41:20.016Z,4.11
2022-12-04T18:43:50.145Z,4.11
2022-12-04T18:46:23.254Z,4.07
2022-12-04T18:48:59.009Z,4.05
2022-12-04T18:51:31.305Z,4.05
2022-12-04T18:54:03.780Z,4.01
2022-12-04T18:56:35.362Z,4.00
2022-12-04T18:59:08.187Z,4.00
2022-12-04T19:01:38.553Z,4.02
2022-12-04T19:04:16.788Z,4.00
2022-12-04T19:06:49.161Z,4.08
2022-12-04T19:09:21.352Z,4.01
2022-12-04T19:11:52.698Z,3.99
2022-12-04T19:14:24.170Z,4.00
2022-12-04T19:16:56.045Z,3.94
2022-12-04T19:19:31.756Z,3.93
2022-12-04T19:22:02.269Z,3.94
2022-12-04T19:24:32.717Z,3.89
2022-12-04T19:27:11.356Z,3.87
2022-12-04T19:29:42.903Z,3.77
2022-12-04T19:32:14.988Z,3.81
2022-12-04T19:34:47.955Z,3.75
2022-12-04T19:37:19.219Z,3.76
2022-12-04T19:39:49.610Z,3.71
2022-12-04T19:42:19.718Z,3.70
2022-12-04T19:44:50.105Z,3.69
2022-12-04T19:47:21.224Z,3.74
2022-12-04T19:49:54.729Z,3.74
2022-12-04T19:52:25.091Z,3.78
2022-12-04T19:54:55.413Z,3.76
2022-12-04T19:57:25.825Z,3.75
2022-12-04T19:59:55.902Z,3.74
2022-12-04T20:02:26.160Z,3.70
2022-12-04T20:04:59.064Z,3.74
2022-12-04T20:07:30.436Z,3.69
2022-12-04T20:10:01.092Z,3.74
2022-12-04T20:12:31.581Z,3.83
2022-12-04T20:15:01.641Z,3.74
2022-12-04T20:17:32.441Z,3.70
2022-12-04T20:20:09.649Z,3.74
2022-12-04T20:22:49.091Z,3.70
2022-12-04T20:25:19.542Z,3.69
2022-12-04T20:28:03.945Z,3.69
2022-12-04T20:30:40.558Z,3.70
2022-12-04T20:33:16.606Z,3.68
2022-12-04T20:35:51.947Z,3.67
2022-12-04T20:38:22.168Z,3.65
2022-12-04T20:40:52.323Z,3.61
2022-12-04T20:43:22.516Z,3.61
2022-12-04T20:45:52.665Z,3.58
2022-12-04T20:48:22.919Z,3.57
2022-12-04T20:50:56.333Z,3.54
2022-12-04T20:53:28.492Z,3.56
2022-12-04T20:56:00.320Z,3.56
2022-12-04T20:58:31.369Z,3.54
2022-12-04T21:01:08.796Z,3.52
2022-12-04T21:03:41.500Z,3.54
2022-12-04T21:06:19.945Z,3.54
2022-12-04T21:08:56.941Z,3.53
2022-12-04T21:11:29.207Z,3.51
2022-12-04T21:14:13.188Z,3.53
2022-12-04T21:16:44.916Z,3.51
2022-12-04T21:19:17.320Z,3.49
2022-12-04T21:21:50.986Z,3.47
2022-12-04T21:24:23.664Z,3.48
2022-12-04T21:27:08.632Z,3.48
2022-12-04T21:29:38.933Z,3.50
2022-12-04T21:32:10.729Z,3.47
2022-12-04T21:34:41.691Z,3.45
2022-12-04T21:37:17.876Z,3.39
2022-12-04T21:39:49.788Z,3.37
2022-12-04T21:42:38.958Z,3.38
2022-12-04T21:45:11.100Z,3.39
2022-12-04T21:47:41.261Z,3.32
2022-12-04T21:50:12.254Z,3.31
2022-12-04T21:52:45.672Z,3.28
2022-12-04T21:55:16.031Z,3.25
2022-12-04T21:57:46.488Z,3.30
2022-12-04T22:00:18.097Z,3.28
2022-12-04T22:02:48.240Z,3.27
2022-12-04T22:05:18.959Z,3.27
2022-12-04T22:07:51.984Z,3.24
2022-12-04T22:10:22.334Z,3.22
2022-12-04T22:12:52.588Z,3.22
2022-12-04T22:15:22.704Z,3.22
2022-12-04T22:17:53.882Z,3.22
2022-12-04T22:20:24.468Z,3.29
2022-12-04T22:22:57.140Z,3.27
2022-12-04T22:25:27.380Z,3.29
2022-12-04T22:27:57.590Z,3.29
2022-12-04T22:30:29.822Z,3.29
2022-12-04T22:33:00.300Z,3.29
2022-12-04T22:35:31.053Z,3.27
2022-12-04T22:38:04.437Z,3.30
2022-12-04T22:40:34.558Z,3.31
2022-12-04T22:43:04.863Z,3.33
2022-12-04T22:45:35.600Z,3.30
2022-12-04T22:48:06.497Z,3.30
2022-12-04T22:50:36.904Z,3.28
2022-12-04T22:53:10.059Z,3.34
2022-12-04T22:55:40.294Z,3.33
2022-12-04T22:58:10.752Z,3.32
2022-12-04T23:00:44.565Z,3.28
2022-12-04T23:03:15.192Z,3.32
2022-12-04T23:05:45.639Z,3.31
2022-12-04T23:08:18.583Z,3.35
2022-12-04T23:10:48.881Z,3.29
2022-12-04T23:13:20.174Z,3.31
2022-12-04T23:15:52.707Z,3.29
2022-12-04T23:18:23.069Z,3.31
2022-12-04T23:20:53.368Z,3.29
2022-12-04T23:23:26.571Z,3.29
2022-12-04T23:25:56.839Z,3.29
2022-12-04T23:28:26.973Z,3.27
2022-12-04T23:30:57.607Z,3.29
2022-12-04T23:33:28.698Z,3.29
2022-12-04T23:36:00.569Z,3.29
2022-12-04T23:38:33.705Z,3.34
2022-12-04T23:41:07.067Z,3.38
2022-12-04T23:43:38.071Z,3.34
2022-12-04T23:46:11.529Z,3.32
2022-12-04T23:48:42.383Z,3.27
2022-12-04T23:51:16.744Z,3.27
2022-12-04T23:53:51.127Z,3.34
2022-12-04T23:56:23.550Z,3.33
2022-12-04T23:58:55.807Z,3.31
